sensor_id;sensor_type;location;lat;lon;timestamp;P1;durP1;ratioP1;P2;durP2;ratioP2
55372;SDS011;41249;47.838;16.490;2023-03-31T00:00:11;1.08;;;0.43;;
55372;SDS011;41249;47.838;16.490;2023-03-31T00:02:38;0.98;;;0.55;;
55372;SDS011;41249;47.838;16.490;2023-03-31T00:05:08;0.75;;;0.45;;
55372;SDS011;41249;47.838;16.490;2023-03-31T00:07:35;0.93;;;0.63;;
55372;SDS011;41249;47.838;16.490;2023-03-31T00:10:05;0.95;;;0.50;;
55372;SDS011;41249;47.838;16.490;2023-03-31T00:12:43;1.63;;;0.60;;
55372;SDS011;41249;47.838;16.490;2023-03-31T00:15:11;2.15;;;0.77;;
55372;SDS011;41249;47.838;16.490;2023-03-31T00:17:38;0.80;;;0.60;;
55372;SDS011;41249;47.838;16.490;2023-03-31T00:20:05;0.70;;;0.60;;
55372;SDS011;41249;47.838;16.490;2023-03-31T00:22:37;1.55;;;0.80;;
55372;SDS011;41249;47.838;16.490;2023-03-31T00:25:08;1.63;;;0.60;;
55372;SDS011;41249;47.838;16.490;2023-03-31T00:27:36;1.15;;;0.57;;
55372;SDS011;41249;47.838;16.490;2023-03-31T00:30:03;1.95;;;0.85;;
55372;SDS011;41249;47.838;16.490;2023-03-31T00:32:30;0.82;;;0.70;;
55372;SDS011;41249;47.838;16.490;2023-03-31T00:34:58;1.88;;;0.80;;
55372;SDS011;41249;47.838;16.490;2023-03-31T00:37:27;1.00;;;0.90;;
55372;SDS011;41249;47.838;16.490;2023-03-31T00:39:54;1.90;;;0.50;;
55372;SDS011;41249;47.838;16.490;2023-03-31T00:42:22;1.38;;;0.80;;
55372;SDS011;41249;47.838;16.490;2023-03-31T00:47:51;3.00;;;0.90;;
55372;SDS011;41249;47.838;16.490;2023-03-31T00:50:24;2.80;;;0.90;;
55372;SDS011;41249;47.838;16.490;2023-03-31T00:52:57;3.45;;;1.08;;
55372;SDS011;41249;47.838;16.490;2023-03-31T00:55:30;4.15;;;0.77;;
55372;SDS011;41249;47.838;16.490;2023-03-31T00:58:00;1.30;;;1.08;;
55372;SDS011;41249;47.838;16.490;2023-03-31T01:00:29;1.95;;;1.10;;
55372;SDS011;41249;47.838;16.490;2023-03-31T01:02:57;2.40;;;0.98;;
55372;SDS011;41249;47.838;16.490;2023-03-31T01:05:32;2.28;;;1.42;;
55372;SDS011;41249;47.838;16.490;2023-03-31T01:08:12;1.42;;;0.98;;
55372;SDS011;41249;47.838;16.490;2023-03-31T01:10:42;1.48;;;1.08;;
55372;SDS011;41249;47.838;16.490;2023-03-31T01:13:13;3.75;;;1.27;;
55372;SDS011;41249;47.838;16.490;2023-03-31T01:15:42;3.65;;;1.20;;
55372;SDS011;41249;47.838;16.490;2023-03-31T01:18:09;3.67;;;0.98;;
55372;SDS011;41249;47.838;16.490;2023-03-31T01:47:05;3.03;;;1.80;;
55372;SDS011;41249;47.838;16.490;2023-03-31T01:49:45;3.70;;;1.20;;
55372;SDS011;41249;47.838;16.490;2023-03-31T01:52:26;3.58;;;1.50;;
55372;SDS011;41249;47.838;16.490;2023-03-31T01:55:01;1.20;;;0.90;;
55372;SDS011;41249;47.838;16.490;2023-03-31T01:57:34;2.72;;;1.10;;
55372;SDS011;41249;47.838;16.490;2023-03-31T02:00:06;4.10;;;2.05;;
55372;SDS011;41249;47.838;16.490;2023-03-31T02:02:38;1.20;;;1.00;;
55372;SDS011;41249;47.838;16.490;2023-03-31T02:05:10;3.83;;;1.38;;
55372;SDS011;41249;47.838;16.490;2023-03-31T02:07:49;2.83;;;1.17;;
55372;SDS011;41249;47.838;16.490;2023-03-31T02:10:20;4.37;;;1.43;;
55372;SDS011;41249;47.838;16.490;2023-03-31T02:12:49;2.00;;;1.30;;
55372;SDS011;41249;47.838;16.490;2023-03-31T02:15:21;1.60;;;1.30;;
55372;SDS011;41249;47.838;16.490;2023-03-31T02:17:53;2.67;;;1.70;;
55372;SDS011;41249;47.838;16.490;2023-03-31T02:20:24;2.75;;;1.75;;
55372;SDS011;41249;47.838;16.490;2023-03-31T02:22:55;4.70;;;1.80;;
55372;SDS011;41249;47.838;16.490;2023-03-31T02:25:24;4.25;;;1.90;;
55372;SDS011;41249;47.838;16.490;2023-03-31T02:28:01;6.07;;;1.67;;
55372;SDS011;41249;47.838;16.490;2023-03-31T02:30:38;2.83;;;1.95;;
55372;SDS011;41249;47.838;16.490;2023-03-31T02:33:24;7.90;;;1.63;;
55372;SDS011;41249;47.838;16.490;2023-03-31T02:35:51;8.18;;;1.77;;
55372;SDS011;41249;47.838;16.490;2023-03-31T02:38:18;2.22;;;1.60;;
55372;SDS011;41249;47.838;16.490;2023-03-31T02:40:44;2.28;;;1.40;;
55372;SDS011;41249;47.838;16.490;2023-03-31T02:43:11;3.25;;;1.45;;
55372;SDS011;41249;47.838;16.490;2023-03-31T02:48:34;3.95;;;1.70;;
55372;SDS011;41249;47.838;16.490;2023-03-31T02:59:38;4.88;;;2.00;;
55372;SDS011;41249;47.838;16.490;2023-03-31T03:11:22;5.07;;;1.45;;
55372;SDS011;41249;47.838;16.490;2023-03-31T03:14:39;4.50;;;1.35;;
55372;SDS011;41249;47.838;16.490;2023-03-31T03:16:58;2.05;;;1.25;;
55372;SDS011;41249;47.838;16.490;2023-03-31T03:19:31;3.20;;;0.88;;
55372;SDS011;41249;47.838;16.490;2023-03-31T03:21:57;1.90;;;0.80;;
55372;SDS011;41249;47.838;16.490;2023-03-31T03:24:24;1.42;;;0.90;;
55372;SDS011;41249;47.838;16.490;2023-03-31T03:26:55;0.80;;;0.52;;
55372;SDS011;41249;47.838;16.490;2023-03-31T03:29:21;1.75;;;0.93;;
55372;SDS011;41249;47.838;16.490;2023-03-31T03:31:48;1.20;;;0.90;;
55372;SDS011;41249;47.838;16.490;2023-03-31T03:34:15;2.22;;;0.90;;
55372;SDS011;41249;47.838;16.490;2023-03-31T03:36:41;5.05;;;1.40;;
55372;SDS011;41249;47.838;16.490;2023-03-31T03:39:08;1.65;;;1.23;;
55372;SDS011;41249;47.838;16.490;2023-03-31T03:41:35;3.20;;;1.45;;
55372;SDS011;41249;47.838;16.490;2023-03-31T03:44:02;1.60;;;1.15;;
55372;SDS011;41249;47.838;16.490;2023-03-31T03:46:28;2.53;;;1.60;;
55372;SDS011;41249;47.838;16.490;2023-03-31T03:48:56;4.07;;;1.70;;
55372;SDS011;41249;47.838;16.490;2023-03-31T03:51:22;2.88;;;1.45;;
55372;SDS011;41249;47.838;16.490;2023-03-31T03:53:49;2.17;;;1.40;;
55372;SDS011;41249;47.838;16.490;2023-03-31T03:56:16;1.92;;;1.13;;
55372;SDS011;41249;47.838;16.490;2023-03-31T03:58:42;1.52;;;1.05;;
55372;SDS011;41249;47.838;16.490;2023-03-31T04:01:09;1.02;;;0.77;;
55372;SDS011;41249;47.838;16.490;2023-03-31T04:03:36;3.22;;;1.10;;
55372;SDS011;41249;47.838;16.490;2023-03-31T04:06:02;1.10;;;0.75;;
55372;SDS011;41249;47.838;16.490;2023-03-31T04:08:30;2.30;;;1.30;;
55372;SDS011;41249;47.838;16.490;2023-03-31T04:10:56;4.22;;;1.35;;
55372;SDS011;41249;47.838;16.490;2023-03-31T04:13:23;2.28;;;0.90;;
55372;SDS011;41249;47.838;16.490;2023-03-31T04:15:50;1.38;;;0.75;;
55372;SDS011;41249;47.838;16.490;2023-03-31T04:18:17;2.60;;;1.02;;
55372;SDS011;41249;47.838;16.490;2023-03-31T04:20:50;0.75;;;0.73;;
55372;SDS011;41249;47.838;16.490;2023-03-31T04:23:31;3.85;;;1.10;;
55372;SDS011;41249;47.838;16.490;2023-03-31T04:25:59;6.00;;;1.40;;
55372;SDS011;41249;47.838;16.490;2023-03-31T04:28:26;1.48;;;0.70;;
55372;SDS011;41249;47.838;16.490;2023-03-31T04:31:00;0.80;;;0.70;;
55372;SDS011;41249;47.838;16.490;2023-03-31T04:33:28;0.80;;;0.60;;
55372;SDS011;41249;47.838;16.490;2023-03-31T04:35:55;1.65;;;0.77;;
55372;SDS011;41249;47.838;16.490;2023-03-31T04:38:22;1.92;;;1.00;;
55372;SDS011;41249;47.838;16.490;2023-03-31T04:40:52;2.60;;;1.10;;
55372;SDS011;41249;47.838;16.490;2023-03-31T04:43:19;1.77;;;1.05;;
55372;SDS011;41249;47.838;16.490;2023-03-31T04:45:46;2.75;;;0.70;;
55372;SDS011;41249;47.838;16.490;2023-03-31T04:48:13;1.83;;;0.98;;
55372;SDS011;41249;47.838;16.490;2023-03-31T04:50:40;2.50;;;0.90;;
55372;SDS011;41249;47.838;16.490;2023-03-31T04:53:07;0.77;;;0.70;;
55372;SDS011;41249;47.838;16.490;2023-03-31T04:55:34;2.28;;;1.00;;
55372;SDS011;41249;47.838;16.490;2023-03-31T04:58:00;1.30;;;0.90;;
55372;SDS011;41249;47.838;16.490;2023-03-31T05:00:27;2.40;;;0.70;;
55372;SDS011;41249;47.838;16.490;2023-03-31T05:02:54;1.13;;;0.70;;
55372;SDS011;41249;47.838;16.490;2023-03-31T05:05:21;0.77;;;0.52;;
55372;SDS011;41249;47.838;16.490;2023-03-31T05:07:48;1.33;;;0.65;;
55372;SDS011;41249;47.838;16.490;2023-03-31T05:10:14;0.40;;;0.40;;
55372;SDS011;41249;47.838;16.490;2023-03-31T05:12:41;1.88;;;0.50;;
55372;SDS011;41249;47.838;16.490;2023-03-31T05:15:07;1.05;;;0.63;;
55372;SDS011;41249;47.838;16.490;2023-03-31T05:17:34;1.95;;;0.93;;
55372;SDS011;41249;47.838;16.490;2023-03-31T05:20:01;5.18;;;0.90;;
55372;SDS011;41249;47.838;16.490;2023-03-31T05:22:34;2.15;;;1.13;;
55372;SDS011;41249;47.838;16.490;2023-03-31T05:25:02;1.08;;;0.70;;
55372;SDS011;41249;47.838;16.490;2023-03-31T05:27:31;1.83;;;0.90;;
55372;SDS011;41249;47.838;16.490;2023-03-31T05:29:58;0.75;;;0.70;;
55372;SDS011;41249;47.838;16.490;2023-03-31T05:32:25;0.98;;;0.68;;
55372;SDS011;41249;47.838;16.490;2023-03-31T05:34:53;0.43;;;0.43;;
55372;SDS011;41249;47.838;16.490;2023-03-31T05:37:23;1.80;;;0.80;;
55372;SDS011;41249;47.838;16.490;2023-03-31T05:39:50;6.45;;;1.20;;
55372;SDS011;41249;47.838;16.490;2023-03-31T05:42:18;3.35;;;0.80;;
55372;SDS011;41249;47.838;16.490;2023-03-31T05:44:45;3.30;;;0.85;;
55372;SDS011;41249;47.838;16.490;2023-03-31T05:47:11;1.77;;;1.00;;
55372;SDS011;41249;47.838;16.490;2023-03-31T05:49:38;4.10;;;0.93;;
55372;SDS011;41249;47.838;16.490;2023-03-31T05:52:05;5.35;;;0.90;;
55372;SDS011;41249;47.838;16.490;2023-03-31T05:54:33;1.52;;;0.80;;
55372;SDS011;41249;47.838;16.490;2023-03-31T05:56:59;0.85;;;0.70;;
55372;SDS011;41249;47.838;16.490;2023-03-31T05:59:27;1.08;;;0.77;;
55372;SDS011;41249;47.838;16.490;2023-03-31T06:01:54;1.98;;;1.08;;
55372;SDS011;41249;47.838;16.490;2023-03-31T06:04:21;1.17;;;0.73;;
55372;SDS011;41249;47.838;16.490;2023-03-31T06:06:47;1.92;;;0.60;;
55372;SDS011;41249;47.838;16.490;2023-03-31T06:09:16;4.43;;;0.90;;
55372;SDS011;41249;47.838;16.490;2023-03-31T06:11:43;1.50;;;0.88;;
55372;SDS011;41249;47.838;16.490;2023-03-31T06:14:09;1.58;;;0.90;;
55372;SDS011;41249;47.838;16.490;2023-03-31T06:16:36;2.55;;;0.93;;
55372;SDS011;41249;47.838;16.490;2023-03-31T06:19:04;2.33;;;0.90;;
55372;SDS011;41249;47.838;16.490;2023-03-31T06:21:30;1.63;;;0.77;;
55372;SDS011;41249;47.838;16.490;2023-03-31T06:23:57;1.15;;;0.82;;
55372;SDS011;41249;47.838;16.490;2023-03-31T06:26:25;3.47;;;1.08;;
55372;SDS011;41249;47.838;16.490;2023-03-31T06:28:52;1.02;;;0.65;;
55372;SDS011;41249;47.838;16.490;2023-03-31T06:31:20;4.38;;;0.90;;
55372;SDS011;41249;47.838;16.490;2023-03-31T06:33:48;1.38;;;0.80;;
55372;SDS011;41249;47.838;16.490;2023-03-31T06:36:17;2.50;;;0.90;;
55372;SDS011;41249;47.838;16.490;2023-03-31T06:38:45;2.33;;;0.88;;
55372;SDS011;41249;47.838;16.490;2023-03-31T06:41:12;1.65;;;0.85;;
55372;SDS011;41249;47.838;16.490;2023-03-31T06:43:40;2.17;;;0.93;;
55372;SDS011;41249;47.838;16.490;2023-03-31T06:46:07;1.38;;;0.88;;
55372;SDS011;41249;47.838;16.490;2023-03-31T06:48:34;2.15;;;1.00;;
55372;SDS011;41249;47.838;16.490;2023-03-31T06:51:01;6.03;;;1.10;;
55372;SDS011;41249;47.838;16.490;2023-03-31T06:53:29;1.50;;;0.95;;
55372;SDS011;41249;47.838;16.490;2023-03-31T06:55:56;3.22;;;0.80;;
55372;SDS011;41249;47.838;16.490;2023-03-31T06:58:23;1.58;;;0.85;;
55372;SDS011;41249;47.838;16.490;2023-03-31T07:00:49;2.88;;;1.00;;
55372;SDS011;41249;47.838;16.490;2023-03-31T07:03:18;1.33;;;0.82;;
55372;SDS011;41249;47.838;16.490;2023-03-31T07:05:48;2.45;;;1.13;;
55372;SDS011;41249;47.838;16.490;2023-03-31T07:08:16;3.38;;;1.00;;
55372;SDS011;41249;47.838;16.490;2023-03-31T07:10:43;1.02;;;0.70;;
55372;SDS011;41249;47.838;16.490;2023-03-31T07:13:14;1.30;;;0.90;;
55372;SDS011;41249;47.838;16.490;2023-03-31T07:15:42;3.55;;;1.02;;
55372;SDS011;41249;47.838;16.490;2023-03-31T07:18:10;5.85;;;0.82;;
55372;SDS011;41249;47.838;16.490;2023-03-31T07:20:37;1.42;;;0.80;;
55372;SDS011;41249;47.838;16.490;2023-03-31T07:23:04;1.33;;;0.90;;
55372;SDS011;41249;47.838;16.490;2023-03-31T07:25:31;1.75;;;0.80;;
55372;SDS011;41249;47.838;16.490;2023-03-31T07:27:58;2.35;;;1.33;;
55372;SDS011;41249;47.838;16.490;2023-03-31T07:30:24;1.20;;;0.70;;
55372;SDS011;41249;47.838;16.490;2023-03-31T07:32:52;2.17;;;1.15;;
55372;SDS011;41249;47.838;16.490;2023-03-31T07:35:20;3.35;;;1.08;;
55372;SDS011;41249;47.838;16.490;2023-03-31T07:37:48;3.38;;;1.10;;
55372;SDS011;41249;47.838;16.490;2023-03-31T07:40:17;2.10;;;1.00;;
55372;SDS011;41249;47.838;16.490;2023-03-31T07:42:47;3.13;;;1.40;;
55372;SDS011;41249;47.838;16.490;2023-03-31T07:45:15;2.75;;;1.58;;
55372;SDS011;41249;47.838;16.490;2023-03-31T07:47:42;2.95;;;1.00;;
55372;SDS011;41249;47.838;16.490;2023-03-31T07:50:12;3.90;;;1.42;;
55372;SDS011;41249;47.838;16.490;2023-03-31T07:52:40;2.17;;;1.10;;
55372;SDS011;41249;47.838;16.490;2023-03-31T07:55:11;1.23;;;0.80;;
55372;SDS011;41249;47.838;16.490;2023-03-31T07:57:38;4.30;;;0.88;;
55372;SDS011;41249;47.838;16.490;2023-03-31T08:00:06;1.02;;;0.77;;
55372;SDS011;41249;47.838;16.490;2023-03-31T08:02:36;3.67;;;0.93;;
55372;SDS011;41249;47.838;16.490;2023-03-31T08:05:04;3.08;;;1.10;;
55372;SDS011;41249;47.838;16.490;2023-03-31T08:07:33;3.97;;;1.15;;
55372;SDS011;41249;47.838;16.490;2023-03-31T08:10:03;3.17;;;1.33;;
55372;SDS011;41249;47.838;16.490;2023-03-31T08:12:31;1.45;;;0.70;;
55372;SDS011;41249;47.838;16.490;2023-03-31T08:14:58;2.92;;;0.77;;
55372;SDS011;41249;47.838;16.490;2023-03-31T08:17:24;2.47;;;0.90;;
55372;SDS011;41249;47.838;16.490;2023-03-31T08:19:51;2.95;;;1.05;;
55372;SDS011;41249;47.838;16.490;2023-03-31T08:22:19;1.42;;;1.02;;
55372;SDS011;41249;47.838;16.490;2023-03-31T08:24:45;2.35;;;0.75;;
55372;SDS011;41249;47.838;16.490;2023-03-31T08:27:12;3.30;;;1.25;;
55372;SDS011;41249;47.838;16.490;2023-03-31T08:29:39;0.88;;;0.70;;
55372;SDS011;41249;47.838;16.490;2023-03-31T08:32:07;1.50;;;0.88;;
55372;SDS011;41249;47.838;16.490;2023-03-31T08:34:34;1.00;;;0.70;;
55372;SDS011;41249;47.838;16.490;2023-03-31T08:37:01;3.33;;;0.88;;
55372;SDS011;41249;47.838;16.490;2023-03-31T08:39:30;1.73;;;0.80;;
55372;SDS011;41249;47.838;16.490;2023-03-31T08:42:01;1.33;;;0.70;;
55372;SDS011;41249;47.838;16.490;2023-03-31T08:44:41;0.82;;;0.70;;
55372;SDS011;41249;47.838;16.490;2023-03-31T08:47:14;1.30;;;0.70;;
55372;SDS011;41249;47.838;16.490;2023-03-31T08:49:47;1.02;;;0.80;;
55372;SDS011;41249;47.838;16.490;2023-03-31T08:52:25;0.88;;;0.70;;
55372;SDS011;41249;47.838;16.490;2023-03-31T08:54:58;3.95;;;1.00;;
55372;SDS011;41249;47.838;16.490;2023-03-31T08:57:50;1.83;;;0.70;;
55372;SDS011;41249;47.838;16.490;2023-03-31T09:00:25;0.70;;;0.60;;
55372;SDS011;41249;47.838;16.490;2023-03-31T09:03:03;2.08;;;0.63;;
55372;SDS011;41249;47.838;16.490;2023-03-31T09:11:10;3.45;;;1.05;;
55372;SDS011;41249;47.838;16.490;2023-03-31T09:16:37;2.92;;;1.30;;
55372;SDS011;41249;47.838;16.490;2023-03-31T09:19:20;2.63;;;1.35;;
55372;SDS011;41249;47.838;16.490;2023-03-31T09:22:14;2.67;;;1.20;;
55372;SDS011;41249;47.838;16.490;2023-03-31T09:27:18;2.92;;;1.10;;
55372;SDS011;41249;47.838;16.490;2023-03-31T09:32:41;2.95;;;1.13;;
55372;SDS011;41249;47.838;16.490;2023-03-31T09:35:18;4.32;;;1.55;;
55372;SDS011;41249;47.838;16.490;2023-03-31T09:37:51;3.65;;;1.50;;
55372;SDS011;41249;47.838;16.490;2023-03-31T09:40:28;3.15;;;1.40;;
55372;SDS011;41249;47.838;16.490;2023-03-31T09:42:56;3.20;;;1.58;;
55372;SDS011;41249;47.838;16.490;2023-03-31T09:45:25;6.70;;;1.48;;
55372;SDS011;41249;47.838;16.490;2023-03-31T09:47:53;4.22;;;2.03;;
55372;SDS011;41249;47.838;16.490;2023-03-31T09:50:22;3.88;;;1.25;;
55372;SDS011;41249;47.838;16.490;2023-03-31T09:52:54;5.03;;;1.70;;
55372;SDS011;41249;47.838;16.490;2023-03-31T09:58:05;4.00;;;1.60;;
55372;SDS011;41249;47.838;16.490;2023-03-31T10:00:33;2.85;;;1.60;;
55372;SDS011;41249;47.838;16.490;2023-03-31T10:03:01;2.47;;;1.25;;
55372;SDS011;41249;47.838;16.490;2023-03-31T10:05:35;2.58;;;1.20;;
55372;SDS011;41249;47.838;16.490;2023-03-31T10:10:43;4.53;;;1.65;;
55372;SDS011;41249;47.838;16.490;2023-03-31T10:13:13;6.28;;;1.45;;
55372;SDS011;41249;47.838;16.490;2023-03-31T10:15:43;4.70;;;1.73;;
55372;SDS011;41249;47.838;16.490;2023-03-31T10:18:16;2.08;;;1.23;;
55372;SDS011;41249;47.838;16.490;2023-03-31T10:20:49;7.78;;;1.65;;
55372;SDS011;41249;47.838;16.490;2023-03-31T10:23:25;2.92;;;1.58;;
55372;SDS011;41249;47.838;16.490;2023-03-31T10:25:53;1.90;;;1.30;;
55372;SDS011;41249;47.838;16.490;2023-03-31T10:28:21;2.55;;;1.40;;
55372;SDS011;41249;47.838;16.490;2023-03-31T10:30:52;3.67;;;1.40;;
55372;SDS011;41249;47.838;16.490;2023-03-31T10:33:22;3.67;;;1.42;;
55372;SDS011;41249;47.838;16.490;2023-03-31T10:36:01;1.58;;;1.20;;
55372;SDS011;41249;47.838;16.490;2023-03-31T10:38:35;1.92;;;1.58;;
55372;SDS011;41249;47.838;16.490;2023-03-31T10:41:05;2.17;;;1.30;;
55372;SDS011;41249;47.838;16.490;2023-03-31T10:43:39;1.85;;;1.10;;
55372;SDS011;41249;47.838;16.490;2023-03-31T10:46:08;3.30;;;1.23;;
55372;SDS011;41249;47.838;16.490;2023-03-31T10:48:36;2.60;;;1.00;;
55372;SDS011;41249;47.838;16.490;2023-03-31T10:51:18;1.33;;;0.85;;
55372;SDS011;41249;47.838;16.490;2023-03-31T10:53:50;1.80;;;1.25;;
55372;SDS011;41249;47.838;16.490;2023-03-31T10:56:35;2.05;;;1.05;;
55372;SDS011;41249;47.838;16.490;2023-03-31T11:07:25;1.35;;;0.90;;
55372;SDS011;41249;47.838;16.490;2023-03-31T11:10:18;2.55;;;1.20;;
55372;SDS011;41249;47.838;16.490;2023-03-31T11:21:10;4.20;;;1.52;;
55372;SDS011;41249;47.838;16.490;2023-03-31T11:24:03;2.60;;;1.27;;
55372;SDS011;41249;47.838;16.490;2023-03-31T11:26:47;2.63;;;1.35;;
55372;SDS011;41249;47.838;16.490;2023-03-31T11:32:29;4.30;;;1.65;;
55372;SDS011;41249;47.838;16.490;2023-03-31T11:48:40;1.83;;;1.10;;
55372;SDS011;41249;47.838;16.490;2023-03-31T11:54:07;2.40;;;1.10;;
55372;SDS011;41249;47.838;16.490;2023-03-31T11:56:41;2.35;;;1.17;;
55372;SDS011;41249;47.838;16.490;2023-03-31T11:59:10;2.55;;;1.00;;
55372;SDS011;41249;47.838;16.490;2023-03-31T12:01:43;2.97;;;1.20;;
55372;SDS011;41249;47.838;16.490;2023-03-31T12:04:27;1.65;;;1.00;;
55372;SDS011;41249;47.838;16.490;2023-03-31T12:07:03;2.05;;;1.13;;
55372;SDS011;41249;47.838;16.490;2023-03-31T12:12:41;2.40;;;1.40;;
55372;SDS011;41249;47.838;16.490;2023-03-31T12:18:10;1.67;;;1.33;;
55372;SDS011;41249;47.838;16.490;2023-03-31T12:20:44;4.63;;;1.23;;
55372;SDS011;41249;47.838;16.490;2023-03-31T12:23:21;2.20;;;1.27;;
55372;SDS011;41249;47.838;16.490;2023-03-31T12:26:05;2.13;;;1.27;;
55372;SDS011;41249;47.838;16.490;2023-03-31T12:28:45;2.17;;;1.42;;
55372;SDS011;41249;47.838;16.490;2023-03-31T12:31:18;3.22;;;1.73;;
55372;SDS011;41249;47.838;16.490;2023-03-31T12:33:59;1.75;;;1.30;;
55372;SDS011;41249;47.838;16.490;2023-03-31T12:36:57;1.77;;;1.20;;
55372;SDS011;41249;47.838;16.490;2023-03-31T12:45:25;1.67;;;1.13;;
55372;SDS011;41249;47.838;16.490;2023-03-31T12:53:37;3.30;;;1.50;;
55372;SDS011;41249;47.838;16.490;2023-03-31T12:56:15;1.73;;;1.30;;
55372;SDS011;41249;47.838;16.490;2023-03-31T12:58:42;1.63;;;0.90;;
55372;SDS011;41249;47.838;16.490;2023-03-31T13:06:51;3.40;;;1.27;;
55372;SDS011;41249;47.838;16.490;2023-03-31T13:12:14;1.92;;;1.25;;
55372;SDS011;41249;47.838;16.490;2023-03-31T13:14:44;2.97;;;1.67;;
55372;SDS011;41249;47.838;16.490;2023-03-31T13:19:48;2.25;;;1.20;;
55372;SDS011;41249;47.838;16.490;2023-03-31T13:22:30;4.88;;;1.38;;
55372;SDS011;41249;47.838;16.490;2023-03-31T13:25:35;1.92;;;1.30;;
55372;SDS011;41249;47.838;16.490;2023-03-31T13:28:24;1.60;;;1.17;;
55372;SDS011;41249;47.838;16.490;2023-03-31T13:30:57;1.67;;;1.02;;
55372;SDS011;41249;47.838;16.490;2023-03-31T13:33:31;2.53;;;1.40;;
55372;SDS011;41249;47.838;16.490;2023-03-31T13:36:18;2.35;;;1.40;;
55372;SDS011;41249;47.838;16.490;2023-03-31T13:42:26;2.22;;;1.25;;
55372;SDS011;41249;47.838;16.490;2023-03-31T13:45:22;1.85;;;1.25;;
55372;SDS011;41249;47.838;16.490;2023-03-31T13:53:21;2.88;;;1.60;;
55372;SDS011;41249;47.838;16.490;2023-03-31T13:59:00;2.60;;;1.60;;
55372;SDS011;41249;47.838;16.490;2023-03-31T14:06:55;1.80;;;1.20;;
55372;SDS011;41249;47.838;16.490;2023-03-31T14:09:31;1.70;;;1.23;;
55372;SDS011;41249;47.838;16.490;2023-03-31T14:12:00;1.52;;;1.23;;
55372;SDS011;41249;47.838;16.490;2023-03-31T14:14:43;2.00;;;1.33;;
55372;SDS011;41249;47.838;16.490;2023-03-31T14:17:10;3.15;;;1.08;;
55372;SDS011;41249;47.838;16.490;2023-03-31T14:19:41;1.85;;;1.30;;
55372;SDS011;41249;47.838;16.490;2023-03-31T14:25:39;2.80;;;1.17;;
55372;SDS011;41249;47.838;16.490;2023-03-31T14:37:12;3.72;;;1.90;;
55372;SDS011;41249;47.838;16.490;2023-03-31T14:39:44;2.20;;;1.20;;
55372;SDS011;41249;47.838;16.490;2023-03-31T14:42:16;2.22;;;1.45;;
55372;SDS011;41249;47.838;16.490;2023-03-31T14:44:44;4.78;;;1.60;;
55372;SDS011;41249;47.838;16.490;2023-03-31T14:47:15;2.22;;;1.20;;
55372;SDS011;41249;47.838;16.490;2023-03-31T14:49:46;2.72;;;1.63;;
55372;SDS011;41249;47.838;16.490;2023-03-31T14:52:17;2.17;;;1.30;;
55372;SDS011;41249;47.838;16.490;2023-03-31T14:54:45;2.57;;;1.50;;
55372;SDS011;41249;47.838;16.490;2023-03-31T14:57:18;1.63;;;1.10;;
55372;SDS011;41249;47.838;16.490;2023-03-31T14:59:51;2.25;;;1.40;;
55372;SDS011;41249;47.838;16.490;2023-03-31T15:02:24;1.92;;;1.48;;
55372;SDS011;41249;47.838;16.490;2023-03-31T15:04:57;1.88;;;1.20;;
55372;SDS011;41249;47.838;16.490;2023-03-31T15:07:28;2.63;;;1.60;;
55372;SDS011;41249;47.838;16.490;2023-03-31T15:09:55;3.35;;;1.67;;
55372;SDS011;41249;47.838;16.490;2023-03-31T15:12:21;2.15;;;1.23;;
55372;SDS011;41249;47.838;16.490;2023-03-31T15:14:49;2.60;;;1.45;;
55372;SDS011;41249;47.838;16.490;2023-03-31T15:17:23;3.47;;;1.50;;
55372;SDS011;41249;47.838;16.490;2023-03-31T15:19:56;4.60;;;1.40;;
55372;SDS011;41249;47.838;16.490;2023-03-31T15:22:29;1.50;;;1.00;;
55372;SDS011;41249;47.838;16.490;2023-03-31T15:24:56;1.52;;;1.17;;
55372;SDS011;41249;47.838;16.490;2023-03-31T15:27:33;2.17;;;1.25;;
55372;SDS011;41249;47.838;16.490;2023-03-31T15:30:16;6.95;;;1.23;;
55372;SDS011;41249;47.838;16.490;2023-03-31T15:32:44;2.03;;;1.00;;
55372;SDS011;41249;47.838;16.490;2023-03-31T15:35:22;1.75;;;0.75;;
55372;SDS011;41249;47.838;16.490;2023-03-31T15:37:58;1.10;;;0.80;;
55372;SDS011;41249;47.838;16.490;2023-03-31T15:40:31;1.13;;;0.70;;
55372;SDS011;41249;47.838;16.490;2023-03-31T15:43:05;2.28;;;1.05;;
55372;SDS011;41249;47.838;16.490;2023-03-31T15:45:51;2.22;;;0.90;;
55372;SDS011;41249;47.838;16.490;2023-03-31T15:51:16;1.75;;;0.77;;
55372;SDS011;41249;47.838;16.490;2023-03-31T15:53:51;1.92;;;0.82;;
55372;SDS011;41249;47.838;16.490;2023-03-31T15:56:29;1.92;;;1.00;;
55372;SDS011;41249;47.838;16.490;2023-03-31T15:59:21;2.80;;;0.93;;
55372;SDS011;41249;47.838;16.490;2023-03-31T16:01:55;1.35;;;0.90;;
55372;SDS011;41249;47.838;16.490;2023-03-31T16:04:28;1.60;;;1.02;;
55372;SDS011;41249;47.838;16.490;2023-03-31T16:12:27;1.88;;;0.93;;
55372;SDS011;41249;47.838;16.490;2023-03-31T16:15:09;2.67;;;0.90;;
55372;SDS011;41249;47.838;16.490;2023-03-31T16:17:45;2.53;;;1.35;;
55372;SDS011;41249;47.838;16.490;2023-03-31T16:22:54;2.88;;;1.10;;
55372;SDS011;41249;47.838;16.490;2023-03-31T16:25:26;1.90;;;1.05;;
55372;SDS011;41249;47.838;16.490;2023-03-31T16:27:57;2.83;;;1.15;;
55372;SDS011;41249;47.838;16.490;2023-03-31T16:30:36;1.95;;;1.10;;
55372;SDS011;41249;47.838;16.490;2023-03-31T16:33:12;5.45;;;1.23;;
55372;SDS011;41249;47.838;16.490;2023-03-31T16:35:42;7.07;;;2.55;;
55372;SDS011;41249;47.838;16.490;2023-03-31T16:38:14;3.28;;;1.17;;
55372;SDS011;41249;47.838;16.490;2023-03-31T16:40:42;2.95;;;1.40;;
55372;SDS011;41249;47.838;16.490;2023-03-31T16:43:14;3.97;;;0.80;;
55372;SDS011;41249;47.838;16.490;2023-03-31T16:45:53;3.13;;;1.02;;
55372;SDS011;41249;47.838;16.490;2023-03-31T16:48:21;3.22;;;1.00;;
55372;SDS011;41249;47.838;16.490;2023-03-31T16:50:51;2.50;;;0.80;;
55372;SDS011;41249;47.838;16.490;2023-03-31T16:53:21;1.58;;;0.85;;
55372;SDS011;41249;47.838;16.490;2023-03-31T16:55:49;1.88;;;1.20;;
55372;SDS011;41249;47.838;16.490;2023-03-31T16:58:15;1.80;;;1.23;;
55372;SDS011;41249;47.838;16.490;2023-03-31T17:00:43;2.75;;;2.05;;
55372;SDS011;41249;47.838;16.490;2023-03-31T17:03:11;2.22;;;1.38;;
55372;SDS011;41249;47.838;16.490;2023-03-31T17:05:40;3.17;;;1.20;;
55372;SDS011;41249;47.838;16.490;2023-03-31T17:08:11;9.15;;;3.95;;
55372;SDS011;41249;47.838;16.490;2023-03-31T17:10:39;7.45;;;3.80;;
55372;SDS011;41249;47.838;16.490;2023-03-31T17:13:07;7.72;;;4.60;;
55372;SDS011;41249;47.838;16.490;2023-03-31T17:15:34;4.20;;;2.30;;
55372;SDS011;41249;47.838;16.490;2023-03-31T17:18:01;4.13;;;1.80;;
55372;SDS011;41249;47.838;16.490;2023-03-31T17:20:29;1.40;;;1.05;;
55372;SDS011;41249;47.838;16.490;2023-03-31T17:22:56;1.52;;;1.00;;
55372;SDS011;41249;47.838;16.490;2023-03-31T17:25:24;2.25;;;1.00;;
55372;SDS011;41249;47.838;16.490;2023-03-31T17:27:50;0.98;;;0.70;;
55372;SDS011;41249;47.838;16.490;2023-03-31T17:30:17;1.25;;;0.80;;
55372;SDS011;41249;47.838;16.490;2023-03-31T17:32:44;1.48;;;0.60;;
55372;SDS011;41249;47.838;16.490;2023-03-31T17:35:11;1.30;;;0.80;;
55372;SDS011;41249;47.838;16.490;2023-03-31T17:37:48;1.73;;;0.80;;
55372;SDS011;41249;47.838;16.490;2023-03-31T17:40:19;2.53;;;0.80;;
55372;SDS011;41249;47.838;16.490;2023-03-31T17:42:47;1.27;;;0.93;;
55372;SDS011;41249;47.838;16.490;2023-03-31T17:45:14;1.80;;;1.20;;
55372;SDS011;41249;47.838;16.490;2023-03-31T17:47:41;3.75;;;0.93;;
55372;SDS011;41249;47.838;16.490;2023-03-31T17:50:10;1.67;;;0.95;;